Time;durP1;ratioP1;P1;durP2;ratioP2;P2;SDS_P1;SDS_P2;PMS_P1;PMS_P2;Temp;Humidity;BMP_temperature;BMP_pressure;BME280_temperature;BME280_humidity;BME280_pressure;Samples;Min_cycle;Max_cycle;Signal;HPM_P1;HPM_P2
2021/05/31 00:02:04;;;;;;;1999.90;999.90;;;;;;;12.06;83.57;98808.41;5032204;28;20049;-65
2021/05/31 00:04:31;;;;;;;1999.90;999.90;;;;;;;11.95;83.78;98803.19;5032492;28;20046;-65
2021/05/31 00:07:07;;;;;;;1999.90;999.90;;;;;;;11.87;84.85;98801.19;5031256;28;20281;-66
2021/05/31 00:09:35;;;;;;;1999.90;999.90;;;;;;;11.93;84.17;98805.47;5032234;28;20041;-65
2021/05/31 00:12:06;;;;;;;1999.90;999.90;;;;;;;12.04;83.79;98789.31;5032767;28;20060;-66
2021/05/31 00:14:34;;;;;;;1999.90;999.90;;;;;;;11.82;84.39;98795.81;5031560;28;20077;-65
2021/05/31 00:17:00;;;;;;;1999.90;999.90;;;;;;;11.86;84.75;98791.22;5032342;28;20057;-66
2021/05/31 00:19:27;;;;;;;1999.90;999.90;;;;;;;12.02;83.93;98793.59;5033403;28;20049;-65
2021/05/31 00:21:54;;;;;;;1999.90;999.90;;;;;;;11.89;84.23;98793.34;5031502;28;20075;-65
2021/05/31 00:24:22;;;;;;;1999.90;999.90;;;;;;;11.96;83.74;98788.19;5031836;28;20427;-66
2021/05/31 00:26:49;;;;;;;1999.90;999.90;;;;;;;12.03;83.67;98793.25;5033014;28;20054;-66
2021/05/31 00:29:16;;;;;;;1999.90;999.90;;;;;;;12.00;83.32;98788.38;5031524;28;20064;-66
2021/05/31 00:31:43;;;;;;;1999.90;999.90;;;;;;;12.12;83.04;98785.75;5030538;28;20096;-66
2021/05/31 00:34:10;;;;;;;1999.90;999.90;;;;;;;12.02;83.32;98774.19;5031261;28;20482;-66
2021/05/31 00:36:36;;;;;;;1999.90;999.90;;;;;;;12.10;82.86;98770.59;5030609;28;20053;-66
2021/05/31 00:39:03;;;;;;;1999.90;999.90;;;;;;;12.19;82.39;98774.16;5032226;28;20103;-66
2021/05/31 00:41:30;;;;;;;1999.90;999.90;;;;;;;12.20;82.55;98775.00;5032353;28;20397;-66
2021/05/31 00:43:56;;;;;;;1999.90;999.90;;;;;;;12.18;82.47;98766.19;5029945;28;20045;-66
2021/05/31 00:46:25;;;;;;;1999.90;999.90;;;;;;;12.12;82.50;98771.91;5032189;28;20096;-66
2021/05/31 00:48:52;;;;;;;1999.90;999.90;;;;;;;11.79;84.14;98774.28;5032273;28;20501;-66
2021/05/31 00:51:19;;;;;;;1999.90;999.90;;;;;;;11.66;84.84;98767.75;5030998;28;20435;-66
2021/05/31 00:53:46;;;;;;;1999.90;999.90;;;;;;;11.70;85.13;98773.44;5030825;28;20103;-66
2021/05/31 00:56:13;;;;;;;1999.90;999.90;;;;;;;11.73;85.11;98772.78;5031742;28;20046;-66
2021/05/31 00:58:39;;;;;;;1999.90;999.90;;;;;;;11.66;85.50;98770.50;5031396;28;20046;-66
2021/05/31 01:01:06;;;;;;;1999.90;999.90;;;;;;;11.81;84.77;98761.72;5031934;28;20054;-66
2021/05/31 01:03:34;;;;;;;1999.90;999.90;;;;;;;11.90;84.22;98761.75;5031118;28;20041;-66
2021/05/31 01:06:04;;;;;;;1999.90;999.90;;;;;;;11.74;85.07;98768.91;5030211;28;20099;-67
2021/05/31 01:09:02;;;;;;;1999.90;999.90;;;;;;;11.69;85.15;98760.75;5032299;28;20069;-65
2021/05/31 01:12:07;;;;;;;1999.90;999.90;;;;;;;11.54;86.38;98771.13;5031561;28;20099;-65
2021/05/31 01:14:55;;;;;;;1999.90;999.90;;;;;;;11.65;86.22;98763.34;5026766;28;20045;-65
2021/05/31 01:17:27;;;;;;;1999.90;999.90;;;;;;;11.91;85.04;98759.78;5031110;28;20103;-65
2021/05/31 01:20:09;;;;;;;1999.90;999.90;;;;;;;12.04;84.43;98753.28;5031826;28;20103;-65
2021/05/31 01:22:36;;;;;;;;;;;;;;;12.16;83.53;98760.97;5031791;28;20049;-65
2021/05/31 01:25:08;;;;;;;1999.90;999.90;;;;;;;11.90;84.83;98753.44;5029525;28;19921;-65
2021/05/31 01:27:46;;;;;;;1999.90;999.90;;;;;;;11.94;84.71;98756.41;5031047;28;20350;-65
2021/05/31 01:30:16;;;;;;;1999.90;999.90;;;;;;;12.02;84.96;98758.34;5031083;28;20057;-65
2021/05/31 01:32:50;;;;;;;1999.90;999.90;;;;;;;12.22;84.07;98754.13;5029023;28;20042;-65
2021/05/31 01:35:22;;;;;;;1999.90;999.90;;;;;;;12.17;84.14;98751.50;5031452;28;24050;-65
2021/05/31 01:37:50;;;;;;;1999.90;999.90;;;;;;;12.22;83.96;98748.59;5031327;28;20049;-65
2021/05/31 01:40:20;;;;;;;1999.90;999.90;;;;;;;12.24;83.81;98749.06;5022622;28;20123;-66
2021/05/31 01:42:47;;;;;;;1999.90;999.90;;;;;;;12.31;84.05;98748.56;5031330;28;20049;-66
2021/05/31 01:45:14;;;;;;;1999.90;999.90;;;;;;;12.11;84.43;98747.28;5029640;28;20416;-66
2021/05/31 01:47:42;;;;;;;1999.90;999.90;;;;;;;12.30;84.29;98742.22;5022427;28;20408;-66
2021/05/31 01:50:11;;;;;;;1999.90;999.90;;;;;;;12.14;84.39;98741.09;5032079;28;20050;-66
2021/05/31 01:52:39;;;;;;;1999.90;999.90;;;;;;;11.77;85.96;98737.78;5029970;28;20073;-66
2021/05/31 01:55:09;;;;;;;1999.90;999.90;;;;;;;11.79;86.54;98741.03;5030568;28;20041;-65
2021/05/31 01:57:36;;;;;;;1999.90;999.90;;;;;;;11.93;86.28;98738.94;5030987;28;20315;-65
2021/05/31 02:00:07;;;;;;;1999.90;999.90;;;;;;;11.53;87.24;98743.75;5030517;28;20076;-65
2021/05/31 02:02:47;;;;;;;1999.90;999.90;;;;;;;11.43;88.13;98742.94;5022538;28;20344;-65
2021/05/31 02:05:15;;;;;;;1999.90;999.90;;;;;;;11.38;88.55;98742.25;5031291;28;20076;-65
2021/05/31 02:07:42;;;;;;;1999.90;999.90;;;;;;;11.60;87.78;98736.59;5030258;28;20103;-65
2021/05/31 02:10:11;;;;;;;1999.90;999.90;;;;;;;11.91;86.33;98732.91;5030391;28;20096;-65
2021/05/31 02:12:55;;;;;;;1999.90;999.90;;;;;;;11.69;86.83;98733.06;5031409;28;20099;-65
2021/05/31 02:15:40;;;;;;;1999.90;999.90;;;;;;;11.87;85.95;98734.69;5031054;28;20095;-65
2021/05/31 02:18:35;;;;;;;1999.90;999.90;;;;;;;11.73;87.10;98736.78;5025521;28;20050;-66
2021/05/31 02:21:14;;;;;;;1999.90;999.90;;;;;;;11.90;86.79;98728.50;5028822;28;20049;-66
2021/05/31 02:23:42;;;;;;;1999.90;999.90;;;;;;;11.49;87.53;98734.47;5030600;28;20054;-66
2021/05/31 02:26:12;;;;;;;1999.90;999.90;;;;;;;11.37;88.52;98729.53;5030512;28;20424;-66
2021/05/31 02:28:40;;;;;;;1999.90;999.90;;;;;;;11.54;88.20;98729.59;5033677;28;20046;-66
2021/05/31 02:31:09;;;;;;;1999.90;999.90;;;;;;;11.55;87.90;98727.63;5034820;28;20050;-66
2021/05/31 02:33:36;;;;;;;1999.90;999.90;;;;;;;11.65;87.94;98726.53;5032292;28;20045;-66
2021/05/31 02:36:06;;;;;;;1999.90;999.90;;;;;;;11.73;87.40;98731.25;5034012;28;20041;-66
2021/05/31 02:38:33;;;;;;;1999.90;999.90;;;;;;;11.73;87.15;98734.00;5035023;28;20050;-66
2021/05/31 02:41:00;;;;;;;1999.90;999.90;;;;;;;11.93;86.37;98727.06;5033438;28;20050;-66
2021/05/31 02:43:26;;;;;;;1999.90;999.90;;;;;;;11.82;86.52;98723.78;5034370;28;20389;-66
2021/05/31 02:45:53;;;;;;;1999.90;999.90;;;;;;;12.10;85.50;98726.25;5033494;28;20115;-66
2021/05/31 02:48:20;;;;;;;1999.90;999.90;;;;;;;12.04;85.71;98727.53;5033382;28;20327;-66
2021/05/31 02:50:46;;;;;;;1999.90;999.90;;;;;;;12.08;85.24;98728.53;5034112;28;20072;-66
2021/05/31 02:53:14;;;;;;;1999.90;999.90;;;;;;;12.13;84.98;98733.91;5034317;28;20049;-67
2021/05/31 02:55:40;;;;;;;1999.90;999.90;;;;;;;12.16;84.82;98741.56;5032153;28;20049;-66
2021/05/31 02:58:08;;;;;;;1999.90;999.90;;;;;;;12.11;84.94;98730.66;5034105;28;20046;-66
2021/05/31 03:00:35;;;;;;;1999.90;999.90;;;;;;;11.73;86.16;98734.00;5034240;28;20115;-66
2021/05/31 03:03:01;;;;;;;1999.90;999.90;;;;;;;11.86;86.00;98729.47;5033020;28;20110;-66
2021/05/31 03:05:29;;;;;;;1999.90;999.90;;;;;;;12.07;85.17;98729.66;5032563;28;20042;-66
2021/05/31 03:07:57;;;;;;;1999.90;999.90;;;;;;;11.79;86.23;98738.28;5034200;28;20056;-66
2021/05/31 03:10:25;;;;;;;1999.90;999.90;;;;;;;11.93;85.75;98733.41;5033562;28;20041;-66
2021/05/31 03:12:51;;;;;;;1999.90;999.90;;;;;;;12.03;85.17;98734.22;5033936;28;20041;-66
2021/05/31 03:15:19;;;;;;;1999.90;999.90;;;;;;;12.04;85.28;98738.63;5033660;28;20128;-66
2021/05/31 03:17:47;;;;;;;1999.90;999.90;;;;;;;11.76;85.80;98739.72;5033184;28;20041;-66
2021/05/31 03:20:15;;;;;;;1999.90;999.90;;;;;;;11.80;86.42;98740.72;5033879;28;20358;-66
2021/05/31 03:22:42;;;;;;;1999.90;999.90;;;;;;;12.01;85.08;98744.81;5033388;28;20049;-66
2021/05/31 03:25:10;;;;;;;1999.90;999.90;;;;;;;12.16;84.93;98744.31;5031877;28;20095;-66
2021/05/31 03:27:37;;;;;;;1999.90;999.90;;;;;;;11.91;85.05;98745.91;5049248;28;20054;-66
2021/05/31 03:30:08;;;;;;;1999.90;999.90;;;;;;;11.97;85.42;98741.91;5032370;28;20049;-66
2021/05/31 03:32:35;;;;;;;1999.90;999.90;;;;;;;12.23;84.38;98747.44;5032713;28;20734;-66
2021/05/31 03:35:03;;;;;;;1999.90;999.90;;;;;;;11.81;86.03;98745.09;5033579;28;20112;-66
2021/05/31 03:37:30;;;;;;;1999.90;999.90;;;;;;;12.14;84.84;98744.66;5031375;28;20049;-66
2021/05/31 03:39:57;;;;;;;1999.90;999.90;;;;;;;11.90;85.59;98744.31;5032902;28;20046;-66
2021/05/31 03:42:24;;;;;;;1999.90;999.90;;;;;;;11.96;85.70;98743.84;5033926;28;20374;-66
2021/05/31 03:44:51;;;;;;;1999.90;999.90;;;;;;;11.89;85.95;98742.66;5030502;28;20045;-66
2021/05/31 03:47:17;;;;;;;1999.90;999.90;;;;;;;12.15;85.06;98746.28;5032124;28;20054;-66
2021/05/31 03:49:44;;;;;;;1999.90;999.90;;;;;;;12.35;83.81;98738.44;5033155;28;20427;-66
2021/05/31 03:52:11;;;;;;;1999.90;999.90;;;;;;;12.25;84.48;98745.16;5028162;28;20356;-66
2021/05/31 03:54:37;;;;;;;1999.90;999.90;;;;;;;12.36;84.09;98744.81;5033044;28;20079;-66
2021/05/31 03:57:04;;;;;;;1999.90;999.90;;;;;;;12.35;84.21;98743.19;5031023;28;20050;-66
2021/05/31 03:59:31;;;;;;;1999.90;999.90;;;;;;;12.35;84.02;98741.22;5030154;28;20046;-66
2021/05/31 04:01:57;;;;;;;1999.90;999.90;;;;;;;12.08;84.83;98745.16;5032759;28;20045;-66
2021/05/31 04:04:24;;;;;;;1999.90;999.90;;;;;;;11.98;85.57;98743.50;5032425;28;20136;-66
2021/05/31 04:11:33;;;;;;;1999.90;999.90;;;;;;;12.19;84.31;98749.22;5032643;28;20049;-66
2021/05/31 04:12:33;;;;;;;1999.90;999.90;;;;;;;12.21;84.00;98741.41;4997908;28;20065;-66
2021/05/31 04:14:59;;;;;;;1999.90;999.90;;;;;;;12.49;83.59;98741.06;5026970;28;20493;-66
2021/05/31 04:17:26;;;;;;;1999.90;999.90;;;;;;;12.51;83.43;98736.00;5025140;28;20458;-66
2021/05/31 04:19:53;;;;;;;1999.90;999.90;;;;;;;12.40;83.76;98748.56;5025824;28;20108;-66
2021/05/31 04:22:20;;;;;;;1999.90;999.90;;;;;;;12.60;83.02;98745.09;5026432;28;20079;-66
2021/05/31 04:24:46;;;;;;;1999.90;999.90;;;;;;;12.40;83.41;98754.09;5028094;28;20103;-66
2021/05/31 04:27:13;;;;;;;1999.90;999.90;;;;;;;12.32;83.61;98750.19;5027222;28;20100;-66
2021/05/31 04:29:39;;;;;;;1999.90;999.90;;;;;;;12.44;83.81;98747.56;5026536;28;20361;-66
2021/05/31 04:32:06;;;;;;;1999.90;999.90;;;;;;;12.39;84.58;98747.75;5027323;28;20123;-65
2021/05/31 04:34:33;;;;;;;1999.90;999.90;;;;;;;12.25;85.45;98745.16;5027061;28;20319;-65
2021/05/31 04:37:00;;;;;;;1999.90;999.90;;;;;;;12.01;87.25;98750.38;5027231;28;20380;-65
2021/05/31 04:39:27;;;;;;;1999.90;999.90;;;;;;;12.09;87.94;98747.59;5028238;28;20049;-65
2021/05/31 04:41:53;;;;;;;1999.90;999.90;;;;;;;11.83;89.63;98744.78;5025188;28;20107;-65
2021/05/31 04:44:20;;;;;;;1999.90;999.90;;;;;;;12.35;88.07;98751.50;5027077;28;20403;-65
2021/05/31 04:46:46;;;;;;;1999.90;999.90;;;;;;;12.21;88.15;98749.72;5025612;28;20389;-64
2021/05/31 04:49:13;;;;;;;1999.90;999.90;;;;;;;12.10;89.44;98742.88;5026343;28;20401;-65
2021/05/31 04:51:40;;;;;;;1999.90;999.90;;;;;;;12.29;88.80;98757.22;5026381;28;20053;-65
2021/05/31 04:54:06;;;;;;;1999.90;999.90;;;;;;;11.86;90.47;98749.66;5027513;28;20107;-65
2021/05/31 04:56:33;;;;;;;1999.90;999.90;;;;;;;12.27;89.49;98744.84;5028362;28;20180;-65
2021/05/31 04:59:00;;;;;;;1999.90;999.90;;;;;;;12.07;89.78;98755.44;5029297;28;20508;-65
2021/05/31 05:01:26;;;;;;;1999.90;999.90;;;;;;;12.20;89.48;98741.75;5026490;28;20419;-65
2021/05/31 05:03:53;;;;;;;1999.90;999.90;;;;;;;12.40;90.25;98746.63;5026683;28;20049;-65
2021/05/31 05:06:19;;;;;;;1999.90;999.90;;;;;;;12.49;88.16;98741.88;5028088;28;20350;-66
2021/05/31 05:08:46;;;;;;;1999.90;999.90;;;;;;;12.63;88.56;98743.63;5027812;28;20076;-66
2021/05/31 05:11:13;;;;;;;1999.90;999.90;;;;;;;12.66;89.00;98740.19;5028260;28;20057;-65
2021/05/31 05:13:39;;;;;;;1999.90;999.90;;;;;;;12.86;90.90;98736.72;5028636;28;20100;-65
2021/05/31 05:16:06;;;;;;;1999.90;999.90;;;;;;;13.03;87.97;98744.16;5025954;28;20075;-65
2021/05/31 05:18:32;;;;;;;1999.90;999.90;;;;;;;12.96;87.10;98735.53;5028024;28;20053;-66
2021/05/31 05:20:59;;;;;;;1999.90;999.90;;;;;;;13.65;85.09;98746.66;5028341;28;20080;-66
2021/05/31 05:23:26;;;;;;;1999.90;999.90;;;;;;;13.03;84.30;98746.94;5025584;28;20350;-65
2021/05/31 05:25:57;;;;;;;1999.90;999.90;;;;;;;13.27;83.66;98745.53;5028490;28;20509;-66
2021/05/31 05:28:24;;;;;;;1999.90;999.90;;;;;;;13.34;83.75;98750.59;5028274;28;20296;-66
2021/05/31 05:30:51;;;;;;;1999.90;999.90;;;;;;;13.17;83.70;98745.91;5025752;28;20110;-66
2021/05/31 05:33:19;;;;;;;1999.90;999.90;;;;;;;12.87;85.61;98745.84;5027110;28;20060;-66
2021/05/31 05:35:51;;;;;;;1999.90;999.90;;;;;;;13.01;83.61;98748.41;5027056;28;20060;-66
2021/05/31 05:43:43;;;;;;;1999.90;999.90;;;;;;;13.06;83.98;98750.22;5027163;28;20081;-66
2021/05/31 05:48:51;;;;;;;1999.90;999.90;;;;;;;13.23;82.30;98749.31;5028131;28;20053;-65
2021/05/31 05:51:19;;;;;;;1999.90;999.90;;;;;;;13.28;81.55;98757.44;5028044;28;20053;-66
2021/05/31 05:53:46;;;;;;;1999.90;999.90;;;;;;;13.32;82.01;98761.19;5026543;28;20461;-65
2021/05/31 05:56:16;;;;;;;1999.90;999.90;;;;;;;13.62;80.81;98752.88;5026918;28;20050;-65
2021/05/31 05:58:44;;;;;;;1999.90;999.90;;;;;;;13.84;81.76;98749.78;5027875;28;20057;-65
2021/05/31 06:01:11;;;;;;;1999.90;999.90;;;;;;;13.86;79.24;98750.28;5026913;28;20122;-65
2021/05/31 06:03:38;;;;;;;1999.90;999.90;;;;;;;14.30;80.87;98752.72;5030502;28;20089;-65
2021/05/31 06:06:06;;;;;;;1999.90;999.90;;;;;;;15.11;79.08;98750.44;5032041;28;20120;-65
2021/05/31 06:08:35;;;;;;;1999.90;999.90;;;;;;;14.48;77.71;98752.56;5031109;28;20053;-66
2021/05/31 06:11:03;;;;;;;1999.90;999.90;;;;;;;14.40;76.56;98748.72;5030226;28;20069;-66
2021/05/31 06:13:31;;;;;;;1999.90;999.90;;;;;;;14.57;76.28;98756.06;5031186;28;20053;-65
2021/05/31 06:16:01;;;;;;;1999.90;999.90;;;;;;;14.67;75.76;98760.44;5029723;28;20042;-66
2021/05/31 06:18:29;;;;;;;1999.90;999.90;;;;;;;14.70;74.45;98757.75;5021363;28;20119;-65
2021/05/31 06:20:57;;;;;;;1999.90;999.90;;;;;;;14.41;75.36;98759.50;5031647;28;20493;-65
2021/05/31 06:23:24;;;;;;;1999.90;999.90;;;;;;;14.48;76.55;98763.69;5030323;28;20052;-67
2021/05/31 06:25:51;;;;;;;1999.90;999.90;;;;;;;14.25;76.34;98755.72;5029758;28;20074;-64
2021/05/31 06:28:18;;;;;;;1999.90;999.90;;;;;;;14.64;74.17;98756.34;5030863;28;20103;-65
2021/05/31 06:30:45;;;;;;;1999.90;999.90;;;;;;;14.60;75.09;98758.16;5030779;28;20305;-65
2021/05/31 06:33:11;;;;;;;1999.90;999.90;;;;;;;14.12;75.58;98754.03;5031608;28;20147;-66
2021/05/31 06:35:39;;;;;;;1999.90;999.90;;;;;;;13.94;76.03;98751.38;5029474;28;20045;-66
2021/05/31 06:38:06;;;;;;;1999.90;999.90;;;;;;;14.21;75.81;98743.63;5020189;28;20088;-66
2021/05/31 06:40:33;;;;;;;1999.90;999.90;;;;;;;14.43;75.24;98746.03;5032368;28;20053;-65
2021/05/31 06:43:00;;;;;;;1999.90;999.90;;;;;;;14.59;76.29;98753.78;5028316;28;20049;-65
2021/05/31 06:45:29;;;;;;;1999.90;999.90;;;;;;;14.77;76.55;98741.31;5029950;28;20450;-66
2021/05/31 06:48:01;;;;;;;1999.90;999.90;;;;;;;14.83;76.79;98749.44;5030713;28;20504;-65
2021/05/31 06:50:30;;;;;;;1999.90;999.90;;;;;;;15.09;74.47;98749.16;5030528;28;20103;-66
2021/05/31 06:52:58;;;;;;;1999.90;999.90;;;;;;;14.97;76.13;98747.16;5030615;28;20376;-66
2021/05/31 06:55:25;;;;;;;1999.90;999.90;;;;;;;15.51;75.26;98748.91;5031233;28;20382;-66
2021/05/31 06:57:53;;;;;;;1999.90;999.90;;;;;;;16.03;72.46;98741.78;5028838;28;20217;-67
2021/05/31 07:00:22;;;;;;;1999.90;999.90;;;;;;;16.16;71.79;98743.38;5031552;28;20053;-66
2021/05/31 07:02:49;;;;;;;1999.90;999.90;;;;;;;16.41;71.70;98740.50;5030234;28;20355;-66
2021/05/31 07:05:17;;;;;;;1999.90;999.90;;;;;;;16.69;70.27;98736.91;5029771;28;20077;-67
2021/05/31 07:07:44;;;;;;;1999.90;999.90;;;;;;;16.83;69.39;98742.03;5029918;28;20445;-66
2021/05/31 07:10:14;;;;;;;1999.90;999.90;;;;;;;16.77;72.73;98735.91;5031116;28;20046;-67
2021/05/31 07:12:42;;;;;;;1999.90;999.90;;;;;;;16.07;68.82;98734.34;5028215;28;20053;-65
2021/05/31 07:15:12;;;;;;;1999.90;999.90;;;;;;;15.72;71.39;98737.66;5030226;28;20045;-66
2021/05/31 07:17:40;;;;;;;1999.90;999.90;;;;;;;16.36;70.00;98737.97;5029760;28;20115;-66
2021/05/31 07:20:11;;;;;;;1999.90;999.90;;;;;;;16.26;68.49;98739.28;5029772;28;20103;-66
2021/05/31 07:22:39;;;;;;;;;;;;;;;16.59;67.53;98731.84;5030757;28;20045;-66
2021/05/31 07:25:08;;;;;;;1999.90;999.90;;;;;;;16.83;69.67;98728.09;5030181;28;19925;-67
2021/05/31 07:27:35;;;;;;;1999.90;999.90;;;;;;;17.30;67.95;98735.72;5029236;28;20366;-67
2021/05/31 07:30:04;;;;;;;1999.90;999.90;;;;;;;17.75;66.15;98727.97;5030058;28;20080;-67
2021/05/31 07:32:30;;;;;;;1999.90;999.90;;;;;;;17.85;64.94;98729.38;5030795;28;20057;-66
2021/05/31 07:34:57;;;;;;;1999.90;999.90;;;;;;;18.41;64.63;98731.81;5030615;28;20107;-67
2021/05/31 07:37:23;;;;;;;1999.90;999.90;;;;;;;18.54;61.54;98729.66;5030703;28;20516;-67
2021/05/31 07:39:50;;;;;;;1999.90;999.90;;;;;;;18.35;64.11;98726.88;5029838;28;20057;-67
2021/05/31 07:42:17;;;;;;;1999.90;999.90;;;;;;;18.33;58.64;98726.44;5029082;28;20049;-66
2021/05/31 07:44:44;;;;;;;1999.90;999.90;;;;;;;18.65;60.35;98719.50;5031499;28;20061;-67
2021/05/31 07:47:10;;;;;;;1999.90;999.90;;;;;;;18.21;56.34;98731.00;5029535;28;20053;-66
2021/05/31 07:49:37;;;;;;;1999.90;999.90;;;;;;;18.54;59.31;98721.25;5029135;28;20093;-67
2021/05/31 07:52:20;;;;;;;1999.90;999.90;;;;;;;18.48;59.29;98723.56;5030914;28;20340;-67
2021/05/31 07:54:47;;;;;;;1999.90;999.90;;;;;;;18.74;57.29;98726.84;5029484;28;20050;-67
2021/05/31 07:57:15;;;;;;;1999.90;999.90;;;;;;;18.74;59.00;98726.84;5029037;28;20053;-66
2021/05/31 07:59:42;;;;;;;1999.90;999.90;;;;;;;19.05;58.08;98720.22;5032061;28;20053;-67
2021/05/31 08:02:09;;;;;;;1999.90;999.90;;;;;;;18.81;58.07;98715.75;5028708;28;20358;-66
2021/05/31 08:04:35;;;;;;;1999.90;999.90;;;;;;;19.38;58.10;98715.16;5029214;28;20046;-66
2021/05/31 08:07:03;;;;;;;1999.90;999.90;;;;;;;19.32;57.41;98715.50;5031098;28;20635;-67
2021/05/31 08:09:29;;;;;;;1999.90;999.90;;;;;;;19.73;53.00;98719.72;5030120;28;20143;-67
2021/05/31 08:11:57;;;;;;;1999.90;999.90;;;;;;;19.66;51.14;98712.78;5030757;28;20054;-66
2021/05/31 08:14:24;;;;;;;1999.90;999.90;;;;;;;19.65;53.85;98708.38;5030015;28;20088;-67
2021/05/31 08:16:51;;;;;;;1999.90;999.90;;;;;;;19.88;53.23;98708.31;5028460;28;20176;-66
2021/05/31 08:19:21;;;;;;;1999.90;999.90;;;;;;;19.44;52.18;98713.66;5031135;28;20422;-67
2021/05/31 08:21:50;;;;;;;1999.90;999.90;;;;;;;18.73;55.78;98719.63;5029769;28;20045;-65
2021/05/31 08:24:19;;;;;;;1999.90;999.90;;;;;;;19.35;54.36;98717.53;5027705;28;20624;-66
2021/05/31 08:26:46;;;;;;;1999.90;999.90;;;;;;;19.32;52.35;98718.28;5030469;28;20049;-65
2021/05/31 08:29:12;;;;;;;1999.90;999.90;;;;;;;18.85;52.03;98711.03;5030437;28;20053;-65
2021/05/31 08:31:40;;;;;;;1999.90;999.90;;;;;;;18.73;53.88;98714.03;5029668;28;20385;-66
2021/05/31 08:34:08;;;;;;;1999.90;999.90;;;;;;;18.96;49.81;98708.47;5030469;28;20401;-65
2021/05/31 08:36:34;;;;;;;1999.90;999.90;;;;;;;19.16;54.12;98706.41;5029941;28;20262;-66
2021/05/31 08:39:02;;;;;;;1999.90;999.90;;;;;;;19.68;51.58;98713.22;5029407;28;20390;-65
2021/05/31 08:41:29;;;;;;;1999.90;999.90;;;;;;;18.45;52.26;98715.88;5029182;28;20054;-66
2021/05/31 08:43:56;;;;;;;1999.90;999.90;;;;;;;18.63;51.15;98704.22;5029962;28;20135;-66
2021/05/31 08:46:23;;;;;;;1999.90;999.90;;;;;;;18.23;52.84;98709.03;5028806;28;20049;-67
2021/05/31 08:48:50;;;;;;;1999.90;999.90;;;;;;;18.91;52.22;98706.78;5030244;28;20500;-67
2021/05/31 08:51:19;;;;;;;1999.90;999.90;;;;;;;18.71;51.93;98710.78;5028605;28;20057;-66
2021/05/31 08:53:46;;;;;;;1999.90;999.90;;;;;;;18.52;52.78;98698.44;5026304;28;20103;-67
2021/05/31 08:56:13;;;;;;;1999.90;999.90;;;;;;;19.19;54.52;98705.66;5030465;28;20050;-66
2021/05/31 08:58:40;;;;;;;1999.90;999.90;;;;;;;18.99;52.26;98700.09;5027569;28;20393;-67
2021/05/31 09:01:07;;;;;;;1999.90;999.90;;;;;;;18.82;51.00;98701.38;5029714;28;20107;-66
2021/05/31 09:03:34;;;;;;;1999.90;999.90;;;;;;;18.74;50.10;98701.63;5030073;28;20049;-66
2021/05/31 09:06:04;;;;;;;1999.90;999.90;;;;;;;18.68;50.28;98700.31;5028908;28;20053;-66
2021/05/31 09:08:31;;;;;;;1999.90;999.90;;;;;;;19.02;48.85;98697.75;5029674;28;20107;-66
2021/05/31 09:11:03;;;;;;;1999.90;999.90;;;;;;;20.09;48.73;98690.16;5029049;28;20053;-66
2021/05/31 09:13:40;;;;;;;1999.90;999.90;;;;;;;19.97;50.47;98690.41;5026307;28;20414;-66
2021/05/31 09:16:13;;;;;;;1999.90;999.90;;;;;;;20.31;49.25;98677.19;5029099;28;20747;-65
2021/05/31 09:18:47;;;;;;;1999.90;999.90;;;;;;;20.73;46.84;98678.88;5029806;28;20053;-65
2021/05/31 09:21:30;;;;;;;1999.90;999.90;;;;;;;21.51;47.48;98693.22;5025507;28;20050;-66
2021/05/31 09:24:06;;;;;;;1999.90;999.90;;;;;;;21.23;46.40;98684.16;5020156;28;20104;-66
2021/05/31 09:26:48;;;;;;;1999.90;999.90;;;;;;;20.86;44.63;98690.66;5028342;28;20075;-66
2021/05/31 09:29:15;;;;;;;1999.90;999.90;;;;;;;19.70;46.35;98693.22;5028644;28;20057;-65
2021/05/31 09:31:42;;;;;;;1999.90;999.90;;;;;;;18.82;51.13;98690.19;5028431;28;20119;-66
2021/05/31 09:34:12;;;;;;;1999.90;999.90;;;;;;;18.96;50.35;98688.84;5028379;28;20061;-66
2021/05/31 09:36:51;;;;;;;1999.90;999.90;;;;;;;19.92;51.80;98685.94;5028421;28;20049;-65
2021/05/31 09:39:21;;;;;;;1999.90;999.90;;;;;;;19.75;48.07;98683.66;5027042;28;20049;-67
2021/05/31 09:41:48;;;;;;;1999.90;999.90;;;;;;;19.23;45.87;98683.28;5029084;28;20500;-66
2021/05/31 09:44:14;;;;;;;1999.90;999.90;;;;;;;19.41;48.57;98683.56;5028483;28;20067;-66
2021/05/31 09:46:42;;;;;;;1999.90;999.90;;;;;;;20.26;48.19;98685.97;5027820;28;20049;-66
2021/05/31 09:49:16;;;;;;;1999.90;999.90;;;;;;;18.97;47.13;98682.88;5025685;28;20061;-65
2021/05/31 09:52:01;;;;;;;1999.90;999.90;;;;;;;17.87;52.51;98685.88;5027515;28;20201;-65
2021/05/31 09:54:35;;;;;;;1999.90;999.90;;;;;;;18.15;53.94;98682.09;5026124;28;20045;-66
2021/05/31 09:57:18;;;;;;;1999.90;999.90;;;;;;;19.39;52.06;98677.53;5025348;28;20160;-66
2021/05/31 09:59:52;;;;;;;1999.90;999.90;;;;;;;20.00;48.69;98673.59;5028149;28;20400;-66
2021/05/31 10:02:23;;;;;;;1999.90;999.90;;;;;;;21.25;45.67;98672.50;5026541;28;20057;-66
2021/05/31 10:09:47;;;;;;;1999.90;999.90;;;;;;;20.04;45.07;98671.66;5026807;28;20075;-66
2021/05/31 10:12:15;;;;;;;1999.90;999.90;;;;;;;19.79;47.17;98673.34;5028186;28;20403;-66
2021/05/31 10:14:44;;;;;;;1999.90;999.90;;;;;;;19.71;43.99;98664.78;5027818;28;20052;-66
2021/05/31 10:17:12;;;;;;;1999.90;999.90;;;;;;;19.08;48.26;98657.81;5027688;28;20049;-66
2021/05/31 10:19:41;;;;;;;1999.90;999.90;;;;;;;18.46;49.49;98649.53;5027375;28;20058;-66
2021/05/31 10:22:08;;;;;;;1999.90;999.90;;;;;;;18.56;51.38;98660.09;5028596;28;20057;-66
2021/05/31 10:24:35;;;;;;;1999.90;999.90;;;;;;;18.44;52.33;98657.47;5026162;28;20458;-66
2021/05/31 10:27:03;;;;;;;1999.90;999.90;;;;;;;17.99;53.52;98653.41;5027283;28;20049;-66
2021/05/31 10:29:31;;;;;;;1999.90;999.90;;;;;;;18.18;52.15;98658.97;5026925;28;20084;-65
2021/05/31 10:32:06;;;;;;;1999.90;999.90;;;;;;;18.37;55.15;98648.94;5025816;28;20389;-66
2021/05/31 10:34:44;;;;;;;1999.90;999.90;;;;;;;19.30;50.82;98639.34;5028059;28;20458;-65
2021/05/31 10:37:38;;;;;;;1999.90;999.90;;;;;;;21.04;50.70;98636.59;5027903;28;20103;-66
2021/05/31 10:40:08;;;;;;;1999.90;999.90;;;;;;;20.57;44.74;98642.59;5024000;28;20355;-66
2021/05/31 10:42:47;;;;;;;1999.90;999.90;;;;;;;19.77;45.46;98651.25;5025002;28;20045;-65
2021/05/31 10:45:24;;;;;;;1999.90;999.90;;;;;;;19.15;47.75;98645.94;5027618;28;20050;-65
2021/05/31 10:48:18;;;;;;;1999.90;999.90;;;;;;;18.54;49.93;98654.06;5027818;28;20064;-66
2021/05/31 10:50:52;;;;;;;1999.90;999.90;;;;;;;18.71;47.18;98649.16;5030199;28;20045;-67
2021/05/31 10:53:26;;;;;;;1999.90;999.90;;;;;;;18.54;48.76;98637.25;5031343;28;20460;-66
2021/05/31 10:56:10;;;;;;;1999.90;999.90;;;;;;;18.54;48.87;98642.84;5031956;28;20457;-66
2021/05/31 10:58:45;;;;;;;1999.90;999.90;;;;;;;18.81;51.09;98631.72;5031049;28;20111;-67
2021/05/31 11:01:34;;;;;;;1999.90;999.90;;;;;;;18.50;52.66;98632.78;5031090;28;20147;-66
2021/05/31 11:04:20;;;;;;;1999.90;999.90;;;;;;;19.22;46.70;98632.03;5032014;28;20061;-66
2021/05/31 11:06:58;;;;;;;1999.90;999.90;;;;;;;19.95;44.40;98626.25;5029595;28;20053;-64
2021/05/31 11:09:34;;;;;;;1999.90;999.90;;;;;;;21.28;42.52;98626.72;5030152;28;20079;-66
2021/05/31 11:12:07;;;;;;;1999.90;999.90;;;;;;;20.45;40.71;98619.56;5031832;28;20057;-66
2021/05/31 11:14:43;;;;;;;1999.90;999.90;;;;;;;18.85;42.22;98621.41;5030472;28;20056;-66
2021/05/31 11:17:15;;;;;;;1999.90;999.90;;;;;;;18.93;44.71;98619.56;5029416;28;20401;-66
2021/05/31 11:19:49;;;;;;;1999.90;999.90;;;;;;;20.06;44.30;98612.34;5029925;28;20095;-66
2021/05/31 11:22:22;;;;;;;1999.90;999.90;;;;;;;20.98;41.77;98622.09;5030592;28;20084;-64